createdAt,value
2018-08-17T00:00:17.103Z,14.53
2018-08-17T00:02:45.526Z,14.77
2018-08-17T00:05:13.957Z,14.43
2018-08-17T00:07:42.365Z,14.80
2018-08-17T00:10:10.810Z,14.40
2018-08-17T00:12:39.459Z,15.37
2018-08-17T00:15:07.952Z,14.27
2018-08-17T00:17:36.364Z,13.73
2018-08-17T00:20:04.841Z,13.40
2018-08-17T00:22:33.251Z,13.27
2018-08-17T00:25:01.883Z,14.37
2018-08-17T00:27:30.391Z,14.17
2018-08-17T00:29:58.795Z,13.60
2018-08-17T00:32:27.188Z,14.40
2018-08-17T00:34:55.844Z,13.80
2018-08-17T00:37:24.325Z,12.50
2018-08-17T00:39:52.730Z,14.00
2018-08-17T00:42:21.155Z,15.10
2018-08-17T00:44:49.776Z,15.07
2018-08-17T00:47:18.268Z,14.33
2018-08-17T00:49:46.683Z,14.00
2018-08-17T00:52:15.091Z,14.30
2018-08-17T00:54:43.496Z,14.57
2018-08-17T00:57:11.982Z,13.93
2018-08-17T00:59:40.612Z,16.23
2018-08-17T01:02:09.340Z,16.33
2018-08-17T01:04:37.859Z,16.07
2018-08-17T01:07:06.265Z,17.73
2018-08-17T01:09:34.643Z,16.93
2018-08-17T01:12:03.297Z,17.83
2018-08-17T01:14:31.776Z,19.20
2018-08-17T01:17:00.162Z,18.13
2018-08-17T01:19:28.584Z,17.70
2018-08-17T01:21:57.005Z,18.73
2018-08-17T01:24:25.427Z,19.10
2018-08-17T01:26:53.837Z,18.53
2018-08-17T01:29:22.232Z,17.20
2018-08-17T01:31:50.855Z,19.17
2018-08-17T01:34:19.615Z,20.07
2018-08-17T01:36:48.096Z,19.30
2018-08-17T01:39:16.498Z,19.00
2018-08-17T01:41:44.922Z,17.77
2018-08-17T01:44:13.564Z,20.47
2018-08-17T01:46:42.062Z,19.77
2018-08-17T01:49:10.479Z,18.63
2018-08-17T01:51:38.918Z,17.30
2018-08-17T01:54:07.307Z,16.77
2018-08-17T01:56:35.719Z,16.70
2018-08-17T01:59:04.125Z,16.63
2018-08-17T02:01:32.799Z,16.40
2018-08-17T02:04:01.308Z,15.60
2018-08-17T02:06:29.704Z,14.10
2018-08-17T02:08:58.105Z,14.43
2018-08-17T02:11:26.522Z,15.00
2018-08-17T02:13:55.148Z,16.87
2018-08-17T02:16:23.854Z,17.83
2018-08-17T02:18:52.355Z,18.50
2018-08-17T02:21:20.761Z,16.80
2018-08-17T02:23:49.168Z,16.80
2018-08-17T02:26:17.818Z,19.13
2018-08-17T02:28:46.535Z,20.53
2018-08-17T02:31:15.041Z,20.37
2018-08-17T02:33:43.471Z,19.50
2018-08-17T02:36:11.899Z,21.37
2018-08-17T02:38:40.317Z,19.03
2018-08-17T02:41:08.737Z,16.07
2018-08-17T02:43:37.137Z,17.37
2018-08-17T02:46:05.534Z,16.57
2018-08-17T02:48:33.935Z,16.17
2018-08-17T02:51:02.346Z,16.93
2018-08-17T02:53:30.747Z,18.47
2018-08-17T02:55:59.160Z,19.83
2018-08-17T02:58:27.568Z,18.17
2018-08-17T03:00:56.003Z,16.90
2018-08-17T03:03:24.411Z,16.70
2018-08-17T03:05:53.033Z,16.57
2018-08-17T03:08:21.740Z,18.33
2018-08-17T03:10:50.241Z,18.93
2018-08-17T03:13:18.620Z,19.90
2018-08-17T03:15:47.020Z,18.73
2018-08-17T03:18:15.423Z,17.93
2018-08-17T03:20:43.823Z,20.83
2018-08-17T03:23:12.198Z,20.03
2018-08-17T03:25:40.626Z,19.60
2018-08-17T03:28:09.005Z,19.33
2018-08-17T03:30:37.386Z,18.63
2018-08-17T03:33:05.795Z,19.97
2018-08-17T03:35:34.199Z,19.73
2018-08-17T03:38:02.616Z,20.63
2018-08-17T03:40:31.038Z,19.73
2018-08-17T03:42:59.643Z,21.87
2018-08-17T03:45:28.110Z,18.83
2018-08-17T03:47:56.523Z,18.73
2018-08-17T03:50:24.910Z,18.23
2018-08-17T03:52:53.527Z,17.93
2018-08-17T03:55:22.016Z,19.77
2018-08-17T03:57:50.411Z,17.63
2018-08-17T04:00:28.859Z,19.67
2018-08-17T04:02:57.246Z,20.57
2018-08-17T04:05:25.635Z,21.10
2018-08-17T04:07:54.022Z,21.23
2018-08-17T04:10:22.696Z,18.93
2018-08-17T04:12:51.391Z,18.67
2018-08-17T04:15:19.894Z,16.70
2018-08-17T04:17:48.285Z,18.50
2018-08-17T04:20:16.674Z,18.07
2018-08-17T04:22:45.294Z,17.03
2018-08-17T04:25:13.763Z,17.13
2018-08-17T04:27:42.144Z,18.17
2018-08-17T04:30:10.621Z,18.03
2018-08-17T04:32:39.242Z,19.07
2018-08-17T04:35:07.713Z,18.90
2018-08-17T04:37:36.112Z,20.70
2018-08-17T04:40:04.492Z,21.13
2018-08-17T04:42:32.879Z,18.60
2018-08-17T04:45:01.275Z,18.00
2018-08-17T04:47:29.679Z,19.03
2018-08-17T04:49:58.067Z,20.00
2018-08-17T04:52:26.463Z,17.30
2018-08-17T04:54:54.856Z,15.63
2018-08-17T04:57:23.467Z,17.73
2018-08-17T04:59:51.969Z,16.77
2018-08-17T05:02:20.349Z,17.10
2018-08-17T05:04:48.731Z,18.43
2018-08-17T05:07:17.232Z,17.30
2018-08-17T05:09:45.843Z,18.00
2018-08-17T05:12:14.347Z,18.30
2018-08-17T05:14:42.867Z,20.53
2018-08-17T05:17:11.389Z,18.30
2018-08-17T05:19:39.858Z,19.87
2018-08-17T05:22:08.366Z,18.67
2018-08-17T05:24:36.771Z,23.23
2018-08-17T05:27:05.186Z,24.67
2018-08-17T05:29:33.846Z,21.97
2018-08-17T05:32:02.362Z,19.17
2018-08-17T05:34:31.040Z,18.20
2018-08-17T05:36:59.768Z,18.73
2018-08-17T05:39:28.266Z,18.87
2018-08-17T05:41:56.738Z,19.43
2018-08-17T05:44:25.355Z,19.70
2018-08-17T05:46:53.870Z,18.47
2018-08-17T05:49:22.282Z,18.00
2018-08-17T05:51:51.062Z,16.63
2018-08-17T05:54:19.772Z,16.93
2018-08-17T05:56:48.376Z,17.47
2018-08-17T05:59:16.965Z,16.83
2018-08-17T06:01:45.766Z,15.10
2018-08-17T06:04:14.299Z,15.23
2018-08-17T06:06:42.716Z,16.17
2018-08-17T06:09:11.128Z,16.00
2018-08-17T06:15:07.925Z,14.23
2018-08-17T06:17:36.583Z,14.47
2018-08-17T06:20:05.443Z,13.60
2018-08-17T06:22:34.060Z,13.00
2018-08-17T06:25:07.265Z,12.13
2018-08-17T06:27:35.974Z,10.20
2018-08-17T06:30:06.016Z,9.27
2018-08-17T06:32:34.428Z,10.10
2018-08-17T06:35:03.043Z,8.17
2018-08-17T06:37:31.827Z,7.63
2018-08-17T06:40:00.447Z,8.40
2018-08-17T06:42:29.098Z,6.58
2018-08-17T06:44:57.828Z,5.97
2018-08-17T06:47:26.487Z,6.40
2018-08-17T06:49:55.251Z,7.10
2018-08-17T06:52:23.935Z,5.97
2018-08-17T06:54:52.593Z,6.15
2018-08-17T06:57:21.197Z,5.58
2018-08-17T06:59:49.780Z,5.70
2018-08-17T07:02:18.511Z,6.00
2018-08-17T07:04:46.995Z,5.15
2018-08-17T07:07:15.425Z,5.62
2018-08-17T07:09:44.062Z,5.47
2018-08-17T07:12:12.867Z,5.92
2018-08-17T07:14:41.595Z,5.90
2018-08-17T07:17:10.136Z,5.58
2018-08-17T07:19:38.942Z,5.22
2018-08-17T07:22:07.736Z,5.30
2018-08-17T07:24:36.257Z,4.70
2018-08-17T07:27:04.868Z,4.70
2018-08-17T07:29:33.355Z,4.30
2018-08-17T07:32:01.811Z,4.23
2018-08-17T07:34:30.218Z,4.70
2018-08-17T07:36:58.855Z,3.90
2018-08-17T07:39:27.339Z,3.60
2018-08-17T07:41:56.023Z,4.40
2018-08-17T07:44:24.495Z,3.83
2018-08-17T07:46:53.145Z,4.00
2018-08-17T07:49:21.887Z,4.00
2018-08-17T07:51:50.385Z,3.37
2018-08-17T07:54:18.824Z,3.80
2018-08-17T07:56:47.248Z,4.12
2018-08-17T07:59:15.873Z,4.95
2018-08-17T08:01:44.392Z,3.92
2018-08-17T08:04:12.800Z,3.98
2018-08-17T08:06:41.246Z,3.58
2018-08-17T08:09:10.532Z,4.10
2018-08-17T08:11:40.124Z,4.53
2018-08-17T08:14:08.975Z,4.12
2018-08-17T08:16:37.398Z,3.90
2018-08-17T08:19:11.499Z,3.70
2018-08-17T08:21:41.909Z,3.67
2018-08-17T08:24:10.299Z,3.50
2018-08-17T08:26:38.895Z,3.67
2018-08-17T08:29:07.448Z,2.90
2018-08-17T08:31:36.060Z,3.15
2018-08-17T08:34:04.584Z,2.83
2018-08-17T08:36:33.495Z,3.22
2018-08-17T08:39:01.883Z,3.77
2018-08-17T08:41:30.328Z,2.72
2018-08-17T08:44:06.188Z,3.60
2018-08-17T08:46:36.138Z,3.72
2018-08-17T08:49:08.899Z,3.33
2018-08-17T08:51:49.735Z,3.05
2018-08-17T08:54:19.212Z,3.10
2018-08-17T08:56:47.899Z,2.70
2018-08-17T08:59:16.408Z,2.92
2018-08-17T09:01:44.883Z,4.50
2018-08-17T09:04:13.268Z,3.90
2018-08-17T09:06:41.902Z,4.22
2018-08-17T09:09:10.427Z,5.05
2018-08-17T09:11:59.769Z,5.25
2018-08-17T09:14:35.835Z,5.58
2018-08-17T09:17:04.426Z,5.35
2018-08-17T09:19:33.051Z,4.03
2018-08-17T09:22:01.861Z,4.83
2018-08-17T09:24:30.341Z,3.65
2018-08-17T09:26:58.731Z,3.55
2018-08-17T09:29:27.156Z,4.00
2018-08-17T09:31:55.805Z,4.12
2018-08-17T09:34:24.500Z,4.65
2018-08-17T09:36:53.423Z,4.85
2018-08-17T09:39:22.123Z,4.30
2018-08-17T09:41:50.848Z,3.67
2018-08-17T09:44:19.548Z,3.52
2018-08-17T09:46:48.030Z,3.65
2018-08-17T09:49:16.629Z,3.37
2018-08-17T09:51:45.411Z,3.92
2018-08-17T09:54:14.100Z,3.25
2018-08-17T09:56:42.789Z,3.83
2018-08-17T09:59:11.278Z,3.05
2018-08-17T10:01:45.416Z,3.75
2018-08-17T10:04:19.411Z,3.60
2018-08-17T10:06:53.395Z,3.40
2018-08-17T10:09:26.719Z,3.27
2018-08-17T10:11:55.320Z,3.72
2018-08-17T10:14:24.004Z,3.37
2018-08-17T10:16:52.502Z,3.27
2018-08-17T10:19:20.884Z,3.30
2018-08-17T10:21:51.949Z,4.00
2018-08-17T10:24:20.500Z,3.85
2018-08-17T10:26:50.040Z,3.70
2018-08-17T10:29:19.036Z,4.92
2018-08-17T10:31:48.350Z,4.55
2018-08-17T10:34:17.368Z,5.35
2018-08-17T10:36:46.515Z,5.55
2018-08-17T10:39:15.697Z,5.80
2018-08-17T10:41:44.096Z,5.85
2018-08-17T10:44:12.752Z,5.62
2018-08-17T10:46:41.780Z,4.80
2018-08-17T10:49:10.659Z,5.47
2018-08-17T10:51:39.560Z,4.95
2018-08-17T10:54:08.287Z,5.55
2018-08-17T10:56:36.748Z,5.37
2018-08-17T10:59:05.395Z,5.45
2018-08-17T11:01:34.171Z,4.90
2018-08-17T11:04:02.675Z,4.90
2018-08-17T11:06:31.280Z,4.35
2018-08-17T11:08:59.992Z,4.37
2018-08-17T11:11:28.459Z,4.30
2018-08-17T11:13:57.068Z,3.40
2018-08-17T11:16:25.787Z,3.65
2018-08-17T11:18:54.267Z,4.65
2018-08-17T11:21:22.657Z,7.25
2018-08-17T11:23:51.281Z,32.35
2018-08-17T11:26:19.972Z,10.72
2018-08-17T11:28:48.442Z,10.00
2018-08-17T11:31:16.890Z,48.65
2018-08-17T11:33:45.483Z,6.15
2018-08-17T11:36:14.212Z,20.00
2018-08-17T11:38:42.700Z,30.40
2018-08-17T11:41:12.111Z,28.50
2018-08-17T11:43:40.553Z,129.23
2018-08-17T11:46:08.950Z,33.45
2018-08-17T11:48:38.184Z,38.10
2018-08-17T11:51:06.695Z,14.25
2018-08-17T11:53:35.342Z,11.33
2018-08-17T11:56:03.811Z,5.12
2018-08-17T11:58:32.212Z,35.05
2018-08-17T12:01:00.661Z,18.95
2018-08-17T12:03:29.674Z,34.85
2018-08-17T12:05:58.389Z,9.78
2018-08-17T12:08:27.168Z,9.45
2018-08-17T12:11:02.848Z,7.28
2018-08-17T12:13:31.401Z,18.92
2018-08-17T12:16:00.043Z,11.63
2018-08-17T12:18:28.512Z,6.15
2018-08-17T12:20:56.947Z,5.08
2018-08-17T12:23:25.410Z,4.78
2018-08-17T12:25:55.202Z,4.10
2018-08-17T12:28:24.184Z,4.97
2018-08-17T12:30:52.600Z,5.43
2018-08-17T12:33:21.018Z,4.13
2018-08-17T12:35:49.472Z,4.53
2018-08-17T12:38:18.552Z,4.80
2018-08-17T12:40:52.505Z,8.53
2018-08-17T12:43:25.191Z,26.83
2018-08-17T12:45:53.708Z,10.67
2018-08-17T12:48:22.107Z,6.83
2018-08-17T12:50:50.507Z,8.63
2018-08-17T12:53:19.212Z,38.60
2018-08-17T12:55:47.719Z,81.83
2018-08-17T12:58:16.351Z,75.23
2018-08-17T13:00:44.863Z,43.40
2018-08-17T13:03:13.264Z,60.10
2018-08-17T13:05:41.682Z,13.50
2018-08-17T13:08:10.075Z,9.63
2018-08-17T13:10:48.588Z,6.90
2018-08-17T13:13:17.068Z,5.80
2018-08-17T13:15:51.480Z,8.00
2018-08-17T13:18:22.272Z,6.60
2018-08-17T13:20:50.854Z,6.37
2018-08-17T13:23:21.295Z,5.87
2018-08-17T13:25:49.710Z,2.43
2018-08-17T13:28:18.335Z,3.33
2018-08-17T13:30:47.063Z,3.07
2018-08-17T13:33:15.544Z,3.40
2018-08-17T13:35:44.174Z,3.27
2018-08-17T13:38:12.659Z,3.10
2018-08-17T13:40:41.072Z,2.50
2018-08-17T13:43:09.458Z,2.70
2018-08-17T13:45:37.854Z,2.53
2018-08-17T13:48:06.280Z,2.70
2018-08-17T13:50:34.838Z,2.63
2018-08-17T13:53:03.457Z,2.73
2018-08-17T13:55:32.245Z,2.60
2018-08-17T13:58:00.714Z,1.90
2018-08-17T14:00:29.277Z,2.00
2018-08-17T14:02:58.148Z,2.20
2018-08-17T14:05:26.653Z,2.30
2018-08-17T14:07:55.259Z,2.30
2018-08-17T14:10:23.850Z,4.50
2018-08-17T14:12:52.267Z,15.67
2018-08-17T14:15:20.719Z,54.58
2018-08-17T14:17:49.123Z,5.57
2018-08-17T14:20:27.605Z,4.17
2018-08-17T14:22:56.221Z,3.67
2018-08-17T14:25:24.699Z,4.00
2018-08-17T14:27:53.307Z,8.90
2018-08-17T14:30:21.899Z,3.13
2018-08-17T14:32:50.296Z,3.20
2018-08-17T14:35:18.750Z,3.70
2018-08-17T14:37:47.335Z,4.50
2018-08-17T14:40:16.107Z,4.27
2018-08-17T14:42:44.619Z,5.00
2018-08-17T14:45:13.011Z,4.70
2018-08-17T14:47:41.387Z,5.47
2018-08-17T14:50:11.875Z,6.63
2018-08-17T14:52:40.898Z,6.23
2018-08-17T14:55:10.067Z,6.43
2018-08-17T14:57:38.508Z,6.47
2018-08-17T15:00:07.856Z,5.50
2018-08-17T15:02:36.560Z,5.87
2018-08-17T15:05:06.367Z,6.20
2018-08-17T15:07:35.122Z,7.20
2018-08-17T15:10:03.724Z,7.93
2018-08-17T15:12:32.336Z,8.60
2018-08-17T15:15:00.920Z,7.50
2018-08-17T15:17:29.311Z,8.80
2018-08-17T15:19:57.700Z,9.28
2018-08-17T15:22:26.100Z,8.30
2018-08-17T15:24:54.492Z,7.63
2018-08-17T15:27:22.908Z,8.30
2018-08-17T15:29:51.308Z,8.50
2018-08-17T15:32:19.955Z,9.17
2018-08-17T15:34:48.483Z,8.17
2018-08-17T15:37:16.899Z,7.53
2018-08-17T15:39:47.978Z,8.60
2018-08-17T15:42:16.571Z,8.37
2018-08-17T15:44:45.211Z,8.10
2018-08-17T15:47:13.703Z,7.53
2018-08-17T15:49:46.599Z,7.10
2018-08-17T15:52:15.224Z,7.63
2018-08-17T15:54:43.924Z,7.27
2018-08-17T15:57:12.665Z,8.40
2018-08-17T15:59:41.051Z,8.20
2018-08-17T16:02:09.672Z,8.23
2018-08-17T16:04:38.216Z,8.60
2018-08-17T16:07:06.661Z,8.23
2018-08-17T16:09:35.279Z,8.17
2018-08-17T16:12:04.092Z,8.13
2018-08-17T16:14:32.583Z,6.70
2018-08-17T16:17:03.276Z,6.40
2018-08-17T16:19:31.679Z,6.10
2018-08-17T16:22:00.070Z,5.03
2018-08-17T16:24:28.467Z,5.17
2018-08-17T16:26:56.843Z,5.20
2018-08-17T16:29:25.236Z,5.37
2018-08-17T16:31:53.684Z,5.13
2018-08-17T16:34:22.279Z,4.93
2018-08-17T16:36:50.765Z,4.60
2018-08-17T16:39:19.367Z,4.27
2018-08-17T16:41:47.898Z,4.93
2018-08-17T16:44:16.287Z,4.57
2018-08-17T16:46:44.683Z,5.13
2018-08-17T16:49:13.292Z,5.23
2018-08-17T16:51:41.785Z,5.33
2018-08-17T16:54:10.170Z,5.53
2018-08-17T16:56:38.576Z,5.27
2018-08-17T16:59:07.142Z,4.97
2018-08-17T17:01:35.431Z,4.83
2018-08-17T17:04:03.835Z,4.10
2018-08-17T17:06:32.328Z,4.10
2018-08-17T17:09:01.498Z,4.03
2018-08-17T17:11:34.990Z,4.10
2018-08-17T17:14:03.432Z,3.20
2018-08-17T17:16:37.467Z,2.97
2018-08-17T17:19:07.366Z,3.03
2018-08-17T17:21:35.738Z,2.80
2018-08-17T17:24:04.135Z,2.53
2018-08-17T17:26:32.523Z,2.77
2018-08-17T17:29:01.119Z,2.60
2018-08-17T17:31:29.823Z,2.70
2018-08-17T17:33:58.547Z,2.70
2018-08-17T17:36:27.038Z,2.40
2018-08-17T17:38:55.652Z,2.63
2018-08-17T17:41:24.122Z,2.97
2018-08-17T17:43:52.510Z,2.80
2018-08-17T17:46:20.932Z,2.93
2018-08-17T17:48:49.533Z,2.80
2018-08-17T17:51:18.006Z,2.70
2018-08-17T17:53:46.411Z,2.83
2018-08-17T17:56:14.792Z,2.50
2018-08-17T17:58:43.158Z,3.37
2018-08-17T18:01:11.545Z,2.67
2018-08-17T18:03:43.756Z,2.83
2018-08-17T18:06:12.143Z,2.57
2018-08-17T18:08:40.539Z,3.37
2018-08-17T18:11:09.136Z,3.00
2018-08-17T18:13:37.619Z,2.87
2018-08-17T18:16:06.031Z,3.50
2018-08-17T18:18:34.411Z,2.93
2018-08-17T18:21:02.830Z,2.90
2018-08-17T18:23:31.234Z,2.93
2018-08-17T18:25:59.611Z,3.17
2018-08-17T18:28:28.235Z,3.00
2018-08-17T18:30:56.707Z,3.03
2018-08-17T18:33:25.078Z,2.73
2018-08-17T18:35:53.477Z,3.13
2018-08-17T18:38:21.891Z,2.63
2018-08-17T18:40:50.480Z,2.53
2018-08-17T18:43:18.983Z,3.00
2018-08-17T18:45:47.374Z,2.90
2018-08-17T18:48:15.800Z,2.97
2018-08-17T18:50:44.248Z,2.83
2018-08-17T18:53:12.655Z,2.90
2018-08-17T18:55:41.057Z,3.23
2018-08-17T18:58:09.451Z,3.47
2018-08-17T19:00:37.840Z,2.83
2018-08-17T19:03:06.243Z,3.37
2018-08-17T19:05:34.646Z,3.00
2018-08-17T19:08:03.034Z,3.57
2018-08-17T19:10:31.507Z,3.43
2018-08-17T19:12:59.852Z,3.50
2018-08-17T19:15:28.237Z,3.13
2018-08-17T19:17:56.599Z,3.10
2018-08-17T19:20:24.999Z,2.90
2018-08-17T19:22:53.614Z,2.97
2018-08-17T19:25:22.318Z,3.17
2018-08-17T19:27:50.798Z,3.37
2018-08-17T19:30:25.026Z,3.37
2018-08-17T19:32:55.037Z,3.30
2018-08-17T19:35:23.795Z,3.53
2018-08-17T19:37:52.796Z,3.07
2018-08-17T19:40:22.081Z,3.20
2018-08-17T19:42:53.537Z,2.90
2018-08-17T19:45:22.251Z,3.00
2018-08-17T19:47:50.813Z,2.97
2018-08-17T19:50:19.901Z,3.40
2018-08-17T19:52:49.001Z,2.80
2018-08-17T19:55:21.111Z,3.03
2018-08-17T19:57:49.772Z,3.00
2018-08-17T20:00:18.743Z,3.20
2018-08-17T20:02:47.223Z,3.13
2018-08-17T20:05:16.552Z,2.93
2018-08-17T20:07:45.665Z,2.70
2018-08-17T20:10:14.223Z,2.93
2018-08-17T20:12:43.211Z,3.10
2018-08-17T20:15:11.622Z,2.90
2018-08-17T20:17:48.670Z,2.87
2018-08-17T20:20:17.184Z,2.57
2018-08-17T20:22:46.074Z,3.13
2018-08-17T20:25:15.456Z,3.10
2018-08-17T20:27:45.965Z,2.93
2018-08-17T20:30:20.270Z,2.80
2018-08-17T20:32:49.195Z,3.17
2018-08-17T20:35:20.560Z,3.03
2018-08-17T20:37:51.071Z,2.50
2018-08-17T20:40:19.799Z,2.63
2018-08-17T20:42:48.500Z,2.83
2018-08-17T20:45:16.955Z,2.80
2018-08-17T20:47:45.373Z,3.17
2018-08-17T20:50:16.054Z,2.83
2018-08-17T20:52:59.576Z,3.00
2018-08-17T20:55:29.452Z,3.13
2018-08-17T20:57:58.683Z,3.67
2018-08-17T21:00:28.209Z,2.80
2018-08-17T21:02:56.857Z,3.20
2018-08-17T21:05:25.477Z,3.07
2018-08-17T21:07:54.027Z,3.13
2018-08-17T21:10:22.515Z,3.07
2018-08-17T21:12:50.986Z,2.90
2018-08-17T21:15:19.413Z,2.93
2018-08-17T21:17:48.331Z,3.37
2018-08-17T21:20:16.755Z,2.77
2018-08-17T21:22:45.184Z,3.50
2018-08-17T21:25:14.362Z,3.40
2018-08-17T21:27:42.846Z,3.13
2018-08-17T21:30:12.382Z,3.70
2018-08-17T21:32:41.131Z,3.43
2018-08-17T21:35:09.589Z,3.13
2018-08-17T21:37:38.119Z,2.83
2018-08-17T21:40:08.951Z,3.10
2018-08-17T21:42:37.338Z,3.17
2018-08-17T21:45:05.755Z,3.83
2018-08-17T21:47:34.367Z,3.23
2018-08-17T21:50:08.079Z,3.50
2018-08-17T21:52:36.480Z,3.00
2018-08-17T21:55:04.877Z,3.13
2018-08-17T21:57:33.287Z,3.70
2018-08-17T22:00:01.667Z,3.17
2018-08-17T22:02:30.043Z,2.87
2018-08-17T22:04:58.660Z,3.23
2018-08-17T22:07:29.744Z,2.90
2018-08-17T22:09:58.223Z,3.20
2018-08-17T22:12:26.728Z,2.80
2018-08-17T22:14:55.006Z,3.13
2018-08-17T22:17:30.833Z,3.27
2018-08-17T22:19:59.236Z,2.70
2018-08-17T22:22:27.626Z,3.10
2018-08-17T22:24:57.165Z,2.67
2018-08-17T22:27:26.465Z,3.07
2018-08-17T22:29:56.105Z,2.93
2018-08-17T22:32:24.603Z,3.20
2018-08-17T22:34:53.237Z,2.90
2018-08-17T22:37:21.628Z,3.20
2018-08-17T22:39:50.025Z,3.03
2018-08-17T22:42:20.259Z,3.20
2018-08-17T22:44:48.891Z,3.20
2018-08-17T22:47:19.204Z,3.17
2018-08-17T22:49:48.255Z,3.30
2018-08-17T22:52:16.679Z,3.20
2018-08-17T22:54:50.633Z,3.47
2018-08-17T22:57:19.035Z,3.30
2018-08-17T22:59:51.897Z,3.20
2018-08-17T23:02:20.283Z,3.83
2018-08-17T23:04:48.664Z,3.20
2018-08-17T23:07:17.059Z,3.63
2018-08-17T23:09:45.451Z,3.37
2018-08-17T23:12:13.847Z,3.00
2018-08-17T23:14:42.266Z,3.97
2018-08-17T23:17:10.623Z,3.17
2018-08-17T23:19:39.020Z,3.93
2018-08-17T23:22:07.441Z,3.27
2018-08-17T23:24:35.888Z,3.40
2018-08-17T23:27:04.303Z,3.50
2018-08-17T23:29:32.696Z,3.40
2018-08-17T23:32:01.090Z,3.50
2018-08-17T23:34:29.464Z,3.80
2018-08-17T23:36:57.863Z,3.57
2018-08-17T23:39:26.277Z,3.83
2018-08-17T23:41:54.660Z,3.67
2018-08-17T23:44:23.054Z,4.00
2018-08-17T23:46:51.566Z,3.70
2018-08-17T23:49:20.007Z,4.03
2018-08-17T23:51:48.407Z,3.83
2018-08-17T23:54:16.889Z,3.93
2018-08-17T23:56:45.287Z,3.50
2018-08-17T23:59:13.683Z,4.17
